Time;durP1;ratioP1;P1;durP2;ratioP2;P2;SDS_P1;SDS_P2;PMS_P1;PMS_P2;Temp;Humidity;BMP_temperature;BMP_pressure;BME280_temperature;BME280_humidity;BME280_pressure;Samples;Min_cycle;Max_cycle;Signal;HPM_P1;HPM_P2
2021/09/04 00:01:44;;;;;;;9.77;7.93;;;16.30;99.90;;;;;;5073187;28;20768;-77
2021/09/04 00:04:11;;;;;;;8.50;6.95;;;16.20;99.90;;;;;;5073624;28;20222;-75
2021/09/04 00:06:38;;;;;;;9.65;7.45;;;16.30;99.90;;;;;;5073327;28;20301;-75
2021/09/04 00:09:05;;;;;;;8.40;7.55;;;16.30;99.90;;;;;;5073160;28;20230;-76
2021/09/04 00:11:32;;;;;;;8.48;6.85;;;16.30;99.90;;;;;;5073040;28;20284;-75
2021/09/04 00:13:59;;;;;;;9.20;7.28;;;16.30;99.90;;;;;;5074570;28;20222;-75
2021/09/04 00:16:28;;;;;;;9.55;7.50;;;16.30;99.90;;;;;;5076971;28;20210;-75
2021/09/04 00:18:54;;;;;;;7.03;6.32;;;16.30;99.90;;;;;;5077151;28;20600;-75
2021/09/04 00:21:21;;;;;;;10.10;6.63;;;16.40;99.90;;;;;;5077129;28;20308;-75
2021/09/04 00:23:48;;;;;;;9.48;6.40;;;16.40;99.90;;;;;;5077170;28;20703;-75
2021/09/04 00:26:15;;;;;;;7.57;6.28;;;16.40;99.90;;;;;;5077003;28;20241;-75
2021/09/04 00:28:42;;;;;;;8.23;6.65;;;16.40;99.90;;;;;;5077229;28;20216;-75
2021/09/04 00:31:09;;;;;;;9.55;7.93;;;16.40;99.90;;;;;;5077045;28;20556;-76
2021/09/04 00:33:37;;;;;;;9.40;6.75;;;16.40;99.90;;;;;;5076712;28;20602;-76
2021/09/04 00:36:04;;;;;;;8.88;7.35;;;16.40;99.90;;;;;;5076285;28;20296;-75
2021/09/04 00:38:31;;;;;;;10.07;6.90;;;16.30;99.90;;;;;;5077163;28;20543;-75
2021/09/04 00:40:58;;;;;;;13.55;8.00;;;16.30;99.90;;;;;;5076648;28;20324;-75
2021/09/04 00:43:25;;;;;;;9.50;7.72;;;16.30;99.90;;;;;;5076323;28;20719;-75
2021/09/04 00:45:52;;;;;;;8.45;6.85;;;16.20;99.90;;;;;;5076577;28;20233;-75
2021/09/04 00:48:19;;;;;;;10.00;7.03;;;16.10;99.90;;;;;;5076685;28;20296;-75
2021/09/04 00:50:47;;;;;;;8.38;6.50;;;16.00;99.90;;;;;;5076808;28;20233;-75
2021/09/04 00:53:15;;;;;;;7.85;6.50;;;16.00;99.90;;;;;;5076690;28;20602;-76
2021/09/04 00:55:42;;;;;;;9.90;6.65;;;16.10;99.90;;;;;;5077345;28;20244;-75
2021/09/04 00:58:08;;;;;;;9.75;6.70;;;16.10;99.90;;;;;;5076614;28;20296;-75
2021/09/04 01:00:35;;;;;;;10.68;7.53;;;16.00;99.90;;;;;;5076331;28;20200;-75
2021/09/04 01:03:02;;;;;;;8.55;6.80;;;16.00;99.90;;;;;;5076429;28;20224;-75
2021/09/04 01:05:29;;;;;;;9.50;7.10;;;16.00;99.90;;;;;;5076588;28;20233;-75
2021/09/04 01:07:57;;;;;;;8.15;6.50;;;16.00;99.90;;;;;;5077642;28;20288;-75
2021/09/04 01:10:26;;;;;;;8.00;7.18;;;16.00;99.90;;;;;;5076803;28;20212;-75
2021/09/04 01:12:53;;;;;;;9.35;6.75;;;16.00;99.90;;;;;;5076324;28;20206;-75
2021/09/04 01:15:20;;;;;;;9.80;6.82;;;16.10;99.90;;;;;;5075963;28;20415;-75
2021/09/04 01:17:47;;;;;;;8.30;6.53;;;16.00;99.90;;;;;;5076153;28;20312;-75
2021/09/04 01:20:15;;;;;;;7.43;6.60;;;16.00;99.90;;;;;;5076312;28;20296;-75
2021/09/04 01:22:41;;;;;;;10.07;7.13;;;16.00;99.90;;;;;;5075478;28;20633;-75
2021/09/04 01:25:11;;;;;;;9.40;6.65;;;15.90;99.90;;;;;;5076219;28;20230;-75
2021/09/04 01:27:40;;;;;;;8.00;6.22;;;16.00;99.90;;;;;;5075983;28;20735;-75
2021/09/04 01:30:09;;;;;;;8.02;6.57;;;15.90;99.90;;;;;;5076012;28;20297;-75
2021/09/04 01:32:36;;;;;;;8.95;6.95;;;16.00;99.90;;;;;;5076118;28;20209;-75
2021/09/04 01:35:05;;;;;;;9.30;6.82;;;16.00;99.90;;;;;;5075398;28;20233;-76
2021/09/04 01:37:33;;;;;;;8.25;6.30;;;16.00;99.90;;;;;;5075779;28;20256;-75
2021/09/04 01:40:00;;;;;;;7.15;6.45;;;16.00;99.90;;;;;;5075973;28;20205;-76
2021/09/04 01:42:27;;;;;;;8.35;7.45;;;15.80;99.90;;;;;;5075675;28;20231;-75
2021/09/04 01:44:55;;;;;;;8.05;6.85;;;15.70;99.90;;;;;;5075854;28;20221;-76
2021/09/04 01:47:22;;;;;;;8.20;6.78;;;15.70;99.90;;;;;;5076391;28;20296;-76
2021/09/04 01:49:49;;;;;;;8.02;6.65;;;15.80;99.90;;;;;;5075922;28;20210;-75
2021/09/04 01:52:15;;;;;;;8.80;6.55;;;15.80;99.90;;;;;;5075447;28;20296;-75
2021/09/04 01:54:42;;;;;;;8.63;6.85;;;15.70;99.90;;;;;;5075204;28;20722;-77
2021/09/04 01:57:11;;;;;;;9.43;7.07;;;15.60;99.90;;;;;;5075397;28;20214;-75
2021/09/04 01:59:38;;;;;;;9.70;7.03;;;15.60;99.90;;;;;;5075537;28;20209;-75
2021/09/04 02:02:07;;;;;;;7.95;6.35;;;15.40;99.90;;;;;;5075328;28;20691;-75
2021/09/04 02:04:34;;;;;;;8.15;6.45;;;15.50;99.90;;;;;;5075092;28;20323;-75
2021/09/04 02:07:01;;;;;;;8.55;6.95;;;15.50;99.90;;;;;;5075116;28;20208;-75
2021/09/04 02:09:28;;;;;;;9.30;7.07;;;15.50;99.90;;;;;;5075080;28;20300;-75
2021/09/04 02:11:55;;;;;;;7.55;6.38;;;15.40;99.90;;;;;;5075240;28;20296;-75
2021/09/04 02:14:22;;;;;;;8.70;6.45;;;15.40;99.90;;;;;;5075223;28;20312;-75
2021/09/04 02:16:49;;;;;;;9.40;6.93;;;15.40;99.90;;;;;;5074337;28;20675;-75
2021/09/04 02:19:17;;;;;;;7.57;5.97;;;15.50;99.90;;;;;;5074562;28;20296;-75
2021/09/04 02:21:44;;;;;;;8.52;6.68;;;15.50;99.90;;;;;;5074810;28;20247;-75
2021/09/04 02:24:11;;;;;;;8.88;6.40;;;15.40;99.90;;;;;;5074781;28;20746;-75
2021/09/04 02:26:38;;;;;;;7.90;6.30;;;15.40;99.90;;;;;;5075140;28;20207;-76
2021/09/04 02:29:05;;;;;;;9.60;6.90;;;15.40;99.90;;;;;;5075060;28;20211;-75
2021/09/04 02:31:31;;;;;;;7.72;6.45;;;15.40;99.90;;;;;;5074594;28;20208;-75
2021/09/04 02:33:58;;;;;;;8.30;6.40;;;15.50;99.90;;;;;;5074793;28;20664;-75
2021/09/04 02:36:28;;;;;;;8.13;6.10;;;15.50;99.90;;;;;;5073988;28;20296;-75
2021/09/04 02:38:55;;;;;;;8.73;6.60;;;15.40;99.90;;;;;;5074896;28;20312;-75
2021/09/04 02:41:22;;;;;;;8.98;7.35;;;15.30;99.90;;;;;;5074683;28;20225;-75
2021/09/04 02:43:49;;;;;;;6.65;5.75;;;15.30;99.90;;;;;;5074483;28;20222;-76
2021/09/04 02:46:16;;;;;;;8.73;6.30;;;15.30;99.90;;;;;;5074191;28;20206;-75
2021/09/04 02:48:43;;;;;;;11.13;6.22;;;15.40;99.90;;;;;;5074900;28;20295;-75
2021/09/04 02:51:09;;;;;;;8.90;6.93;;;15.40;99.90;;;;;;5074564;28;20293;-75
2021/09/04 02:53:38;;;;;;;9.20;6.60;;;15.40;99.90;;;;;;5074465;28;20728;-75
2021/09/04 02:56:05;;;;;;;9.77;6.97;;;15.40;99.90;;;;;;5074165;28;20205;-75
2021/09/04 02:58:32;;;;;;;8.00;6.05;;;15.40;99.90;;;;;;5074048;28;20237;-75
2021/09/04 03:00:59;;;;;;;7.57;5.95;;;15.30;99.90;;;;;;5074277;28;20290;-75
2021/09/04 03:03:26;;;;;;;8.27;6.50;;;15.30;99.90;;;;;;5074214;28;20271;-75
2021/09/04 03:05:53;;;;;;;6.00;5.03;;;15.30;99.90;;;;;;5073810;28;20210;-75
2021/09/04 03:08:20;;;;;;;8.73;6.18;;;15.30;99.90;;;;;;5074122;28;20654;-75
2021/09/04 03:10:48;;;;;;;7.65;5.90;;;15.30;99.90;;;;;;5074165;28;20296;-75
2021/09/04 03:13:15;;;;;;;7.43;5.88;;;15.30;99.90;;;;;;5073702;28;20216;-75
2021/09/04 03:15:42;;;;;;;6.97;6.22;;;15.30;99.90;;;;;;5073525;28;20299;-76
2021/09/04 03:18:08;;;;;;;7.50;6.10;;;15.20;99.90;;;;;;5073990;28;20205;-75
2021/09/04 03:20:35;;;;;;;8.25;6.00;;;15.20;99.90;;;;;;5074026;28;20204;-75
2021/09/04 03:23:02;;;;;;;8.18;6.57;;;15.10;99.90;;;;;;5073986;28;20260;-75
2021/09/04 03:25:29;;;;;;;7.53;6.72;;;15.00;99.90;;;;;;5073938;28;20627;-75
2021/09/04 03:27:57;;;;;;;9.07;6.45;;;15.00;99.90;;;;;;5073727;28;20207;-75
2021/09/04 03:30:24;;;;;;;8.60;6.50;;;15.00;99.90;;;;;;5073614;28;20204;-75
2021/09/04 03:32:51;;;;;;;8.18;6.65;;;15.00;99.90;;;;;;5073560;28;20210;-77
2021/09/04 03:35:18;;;;;;;8.73;6.97;;;14.90;99.90;;;;;;5073329;28;20229;-75
2021/09/04 03:37:45;;;;;;;8.93;7.18;;;14.80;99.90;;;;;;5073468;28;20307;-75
2021/09/04 03:40:12;;;;;;;7.22;6.20;;;14.80;99.90;;;;;;5073417;28;20609;-75
2021/09/04 03:42:39;;;;;;;10.18;6.95;;;14.90;99.90;;;;;;5073352;28;20230;-75
2021/09/04 03:45:08;;;;;;;8.77;6.57;;;15.00;99.90;;;;;;5073413;28;20312;-76
2021/09/04 03:47:35;;;;;;;9.48;7.00;;;15.00;99.90;;;;;;5073602;28;20699;-75
2021/09/04 03:50:02;;;;;;;8.25;6.72;;;15.00;99.90;;;;;;5077050;28;20204;-75
2021/09/04 03:52:29;;;;;;;6.88;5.82;;;15.00;99.90;;;;;;5077914;28;20212;-76
2021/09/04 03:54:56;;;;;;;7.72;6.20;;;15.00;99.90;;;;;;5077341;28;20295;-76
2021/09/04 03:57:23;;;;;;;9.23;6.65;;;15.00;99.90;;;;;;5077315;28;20287;-75
2021/09/04 03:59:50;;;;;;;8.15;6.57;;;15.00;99.90;;;;;;5077412;28;20300;-75
2021/09/04 04:02:18;;;;;;;8.90;7.05;;;15.00;99.90;;;;;;5077581;28;20585;-75
2021/09/04 04:04:44;;;;;;;9.35;6.70;;;15.00;99.90;;;;;;5077347;28;20225;-75
2021/09/04 04:07:12;;;;;;;8.55;6.43;;;15.00;99.90;;;;;;5077610;28;20300;-75
2021/09/04 04:09:38;;;;;;;7.57;6.68;;;15.00;99.90;;;;;;5077270;28;20301;-75
2021/09/04 04:12:06;;;;;;;8.45;6.57;;;15.00;99.90;;;;;;5077105;28;20668;-75
2021/09/04 04:14:33;;;;;;;10.32;6.68;;;15.10;99.90;;;;;;5077403;28;20233;-75
2021/09/04 04:17:00;;;;;;;8.45;6.40;;;15.00;99.90;;;;;;5077102;28;20732;-75
2021/09/04 04:19:28;;;;;;;9.13;6.60;;;14.80;99.90;;;;;;5077379;28;20206;-75
2021/09/04 04:21:55;;;;;;;8.90;6.88;;;14.70;99.90;;;;;;5076821;28;20229;-75
2021/09/04 04:24:22;;;;;;;9.88;7.65;;;14.70;99.90;;;;;;5076882;28;20223;-75
2021/09/04 04:26:48;;;;;;;9.15;7.68;;;14.70;99.90;;;;;;5076838;28;20209;-75
2021/09/04 04:29:15;;;;;;;8.65;6.95;;;14.70;99.90;;;;;;5077293;28;20298;-75
2021/09/04 04:31:42;;;;;;;10.43;7.10;;;14.70;99.90;;;;;;5076684;28;20291;-75
2021/09/04 04:34:09;;;;;;;9.13;6.53;;;14.70;99.90;;;;;;5076447;28;20231;-75
2021/09/04 04:36:37;;;;;;;9.50;7.22;;;14.60;99.90;;;;;;5076520;28;20212;-75
2021/09/04 04:39:04;;;;;;;11.18;8.07;;;14.70;99.90;;;;;;5076488;28;20465;-75
2021/09/04 04:41:31;;;;;;;9.48;7.47;;;14.80;99.90;;;;;;5075803;28;20995;-75
2021/09/04 04:43:58;;;;;;;9.45;7.30;;;14.70;99.90;;;;;;5075639;28;20227;-75
2021/09/04 04:46:25;;;;;;;9.40;7.25;;;14.70;99.90;;;;;;5075188;28;20210;-75
2021/09/04 04:48:52;;;;;;;9.48;6.93;;;14.70;99.90;;;;;;5075627;28;20294;-75
2021/09/04 04:51:18;;;;;;;9.43;7.15;;;14.80;99.90;;;;;;5075456;28;20299;-75
2021/09/04 04:53:47;;;;;;;10.52;7.43;;;14.80;99.90;;;;;;5075300;28;20216;-75
2021/09/04 04:56:14;;;;;;;9.93;7.07;;;14.80;99.90;;;;;;5075257;28;20553;-75
2021/09/04 04:58:41;;;;;;;8.88;6.97;;;14.70;99.90;;;;;;5075667;28;20558;-75
2021/09/04 05:01:07;;;;;;;8.60;6.70;;;14.70;99.90;;;;;;5075119;28;20612;-75
2021/09/04 05:03:34;;;;;;;10.23;6.78;;;14.80;99.90;;;;;;5074832;28;20259;-75
2021/09/04 05:06:01;;;;;;;7.75;6.85;;;14.80;99.90;;;;;;5075026;28;20244;-75
2021/09/04 05:08:28;;;;;;;9.57;7.05;;;14.80;99.90;;;;;;5075199;28;20295;-75
2021/09/04 05:10:56;;;;;;;9.82;6.63;;;14.80;99.90;;;;;;5075196;28;20239;-76
2021/09/04 05:13:23;;;;;;;7.70;6.75;;;14.60;99.90;;;;;;5075152;28;20282;-76
2021/09/04 05:15:50;;;;;;;10.02;7.28;;;14.70;99.90;;;;;;5074757;28;20565;-76
2021/09/04 05:18:17;;;;;;;9.23;6.90;;;14.60;99.90;;;;;;5074690;28;20225;-76
2021/09/04 05:20:46;;;;;;;11.80;7.45;;;14.60;99.90;;;;;;5074731;28;20298;-76
2021/09/04 05:23:13;;;;;;;8.73;7.45;;;14.60;99.90;;;;;;5074654;28;20784;-75
2021/09/04 05:25:40;;;;;;;9.80;7.53;;;14.60;99.90;;;;;;5074507;28;20205;-76
2021/09/04 05:28:08;;;;;;;8.70;7.10;;;14.70;99.90;;;;;;5074927;28;20222;-76
2021/09/04 05:30:35;;;;;;;10.02;8.07;;;14.80;99.90;;;;;;5074391;28;20716;-76
2021/09/04 05:33:02;;;;;;;9.13;7.00;;;14.90;99.90;;;;;;5074453;28;20295;-75
2021/09/04 05:35:28;;;;;;;8.20;7.28;;;14.80;99.90;;;;;;5074089;28;20278;-75
2021/09/04 05:37:56;;;;;;;10.27;7.90;;;14.80;99.90;;;;;;5074775;28;20566;-75
2021/09/04 05:40:22;;;;;;;8.85;6.93;;;14.70;99.90;;;;;;5037049;28;1081653;-76
2021/09/04 05:42:49;;;;;;;11.15;7.07;;;14.80;99.90;;;;;;5075718;28;20315;-76
2021/09/04 05:45:17;;;;;;;11.07;7.10;;;14.50;99.90;;;;;;5074930;28;20220;-76
2021/09/04 05:47:44;;;;;;;8.90;7.03;;;14.50;99.90;;;;;;5075464;28;20291;-75
2021/09/04 05:50:11;;;;;;;13.27;6.93;;;14.60;99.90;;;;;;5075355;28;20550;-76
2021/09/04 05:52:38;;;;;;;11.27;7.95;;;14.50;99.90;;;;;;5075567;28;20602;-76
2021/09/04 05:55:05;;;;;;;14.77;8.98;;;14.60;99.90;;;;;;5075620;28;20568;-76
2021/09/04 05:57:32;;;;;;;10.77;7.93;;;14.60;99.90;;;;;;5074917;28;20299;-76
2021/09/04 05:59:59;;;;;;;12.63;8.18;;;14.70;99.90;;;;;;5074937;28;20303;-76
2021/09/04 06:02:27;;;;;;;11.45;7.95;;;14.70;99.90;;;;;;5075078;28;20234;-75
2021/09/04 06:04:54;;;;;;;10.60;8.32;;;14.70;99.90;;;;;;5075095;28;20224;-75
2021/09/04 06:07:21;;;;;;;12.20;9.30;;;14.60;99.90;;;;;;5075249;28;20238;-75
2021/09/04 06:09:47;;;;;;;10.32;8.65;;;14.50;99.90;;;;;;5075303;28;20558;-75
2021/09/04 06:12:14;;;;;;;12.32;8.40;;;14.50;99.90;;;;;;5074719;28;20298;-75
2021/09/04 06:14:41;;;;;;;13.27;8.88;;;14.50;99.90;;;;;;5074741;28;20220;-75
2021/09/04 06:17:08;;;;;;;12.15;8.60;;;14.60;99.90;;;;;;5074729;28;20243;-75
2021/09/04 06:19:36;;;;;;;12.23;8.48;;;14.70;99.90;;;;;;5075091;28;20296;-75
2021/09/04 06:22:03;;;;;;;11.05;8.80;;;14.90;99.90;;;;;;5074931;28;20292;-75
2021/09/04 06:24:30;;;;;;;12.75;8.90;;;15.00;99.90;;;;;;5074667;28;20687;-75
2021/09/04 06:26:57;;;;;;;13.32;9.05;;;15.10;99.90;;;;;;5074377;28;20204;-75
2021/09/04 06:29:24;;;;;;;11.13;8.50;;;15.10;99.90;;;;;;5074619;28;20210;-75
2021/09/04 06:31:51;;;;;;;11.88;9.35;;;15.10;99.90;;;;;;5074479;28;20213;-75
2021/09/04 06:34:18;;;;;;;11.88;9.20;;;15.20;99.90;;;;;;5074236;28;20221;-75
2021/09/04 06:36:46;;;;;;;12.68;8.60;;;15.20;99.90;;;;;;5074599;28;20210;-75
2021/09/04 06:39:13;;;;;;;12.10;8.95;;;15.20;99.90;;;;;;5074709;28;20232;-75
2021/09/04 06:41:40;;;;;;;11.65;8.60;;;15.30;99.90;;;;;;5074104;28;20309;-75
2021/09/04 06:44:07;;;;;;;13.25;9.23;;;15.30;99.90;;;;;;5073980;28;20260;-75
2021/09/04 06:46:34;;;;;;;14.60;8.38;;;15.30;99.90;;;;;;5074273;28;20201;-75
2021/09/04 06:49:00;;;;;;;9.80;7.88;;;15.20;99.90;;;;;;5074324;28;20727;-75
2021/09/04 06:51:28;;;;;;;9.93;8.30;;;15.20;99.90;;;;;;5073951;28;20241;-75
2021/09/04 06:53:56;;;;;;;12.23;7.95;;;15.20;99.90;;;;;;5073762;28;20328;-75
2021/09/04 06:56:23;;;;;;;12.20;8.63;;;15.20;99.90;;;;;;5073988;28;20642;-75
2021/09/04 06:58:50;;;;;;;10.68;8.32;;;15.10;99.90;;;;;;5074205;28;20308;-75
2021/09/04 07:01:17;;;;;;;10.05;7.80;;;15.10;99.90;;;;;;5074097;28;20211;-75
2021/09/04 07:03:43;;;;;;;11.05;8.65;;;15.00;99.90;;;;;;5073877;28;20778;-75
2021/09/04 07:06:10;;;;;;;11.98;9.30;;;15.00;99.90;;;;;;5073679;28;20684;-75
2021/09/04 07:08:37;;;;;;;11.50;8.50;;;14.90;99.90;;;;;;5073527;28;20209;-75
2021/09/04 07:11:06;;;;;;;11.93;8.77;;;15.00;99.90;;;;;;5074007;28;20208;-75
2021/09/04 07:13:32;;;;;;;12.15;8.35;;;15.10;99.90;;;;;;5073679;28;20710;-75
2021/09/04 07:15:59;;;;;;;12.23;8.98;;;15.30;99.90;;;;;;5073433;28;20237;-75
2021/09/04 07:18:26;;;;;;;10.70;8.38;;;15.50;99.90;;;;;;5074112;28;20213;-75
2021/09/04 07:20:53;;;;;;;10.65;8.43;;;15.60;99.90;;;;;;5074075;28;20212;-76
2021/09/04 07:23:20;;;;;;;10.00;8.35;;;15.70;99.90;;;;;;5073249;28;20230;-76
2021/09/04 07:25:47;;;;;;;8.82;7.45;;;15.70;99.90;;;;;;5073431;28;20243;-75
2021/09/04 07:28:15;;;;;;;9.38;7.22;;;15.70;99.90;;;;;;5073857;28;20206;-75
2021/09/04 07:30:42;;;;;;;10.88;7.75;;;15.80;99.90;;;;;;5073951;28;20300;-75
2021/09/04 07:33:10;;;;;;;12.07;8.32;;;15.90;99.90;;;;;;5073868;28;20661;-76
2021/09/04 07:35:37;;;;;;;10.65;7.50;;;15.90;99.90;;;;;;5073489;28;20545;-75
2021/09/04 07:38:04;;;;;;;9.18;7.63;;;15.90;99.90;;;;;;5073429;28;20743;-75
2021/09/04 07:40:31;;;;;;;9.77;7.85;;;16.00;99.90;;;;;;5073559;28;20593;-76
2021/09/04 07:42:58;;;;;;;14.55;8.38;;;16.10;99.90;;;;;;5073978;28;20310;-75
2021/09/04 07:45:26;;;;;;;11.63;8.18;;;16.30;99.90;;;;;;5073949;28;20233;-75
2021/09/04 07:47:53;;;;;;;8.25;7.45;;;16.40;99.90;;;;;;5073862;28;20301;-76
2021/09/04 07:50:20;;;;;;;9.80;7.85;;;16.50;99.90;;;;;;5073530;28;20608;-75
2021/09/04 07:52:47;;;;;;;9.90;7.90;;;16.50;99.90;;;;;;5073338;28;20234;-75
2021/09/04 07:55:13;;;;;;;8.90;7.65;;;16.60;99.90;;;;;;5073797;28;20227;-75
2021/09/04 07:57:40;;;;;;;9.98;7.65;;;16.50;99.90;;;;;;5073327;28;20203;-75
2021/09/04 08:00:08;;;;;;;8.95;7.35;;;16.50;99.90;;;;;;5073178;28;20293;-75
2021/09/04 08:02:37;;;;;;;10.82;7.28;;;16.50;99.90;;;;;;5073828;28;20207;-75
2021/09/04 08:05:04;;;;;;;11.48;7.18;;;16.60;99.90;;;;;;5073048;28;20651;-76
2021/09/04 08:07:31;;;;;;;9.35;7.25;;;16.60;99.90;;;;;;5073420;28;20592;-75
2021/09/04 08:09:58;;;;;;;9.77;7.82;;;16.60;99.90;;;;;;5073720;28;20299;-75
2021/09/04 08:12:25;;;;;;;9.93;7.80;;;16.70;99.90;;;;;;5073523;28;20431;-75
2021/09/04 08:14:52;;;;;;;9.27;8.00;;;16.80;99.90;;;;;;5072773;28;20222;-75
2021/09/04 08:17:18;;;;;;;9.23;7.10;;;16.90;99.90;;;;;;5073127;28;20210;-75
2021/09/04 08:19:47;;;;;;;8.43;7.60;;;16.90;99.90;;;;;;5073048;28;20198;-75
2021/09/04 08:22:13;;;;;;;10.43;6.80;;;17.10;99.90;;;;;;5073359;28;20541;-75
2021/09/04 08:24:40;;;;;;;10.20;7.78;;;17.10;99.90;;;;;;5073720;28;20317;-76
2021/09/04 08:27:07;;;;;;;9.27;7.47;;;17.10;99.90;;;;;;5073304;28;20538;-75
2021/09/04 08:29:34;;;;;;;10.57;7.95;;;17.10;99.90;;;;;;5073404;28;20234;-75
2021/09/04 08:32:01;;;;;;;9.88;7.65;;;17.20;99.90;;;;;;5072827;28;20213;-75
2021/09/04 08:34:27;;;;;;;9.55;7.47;;;17.30;99.90;;;;;;5073782;28;20222;-75
2021/09/04 08:36:56;;;;;;;10.05;7.50;;;17.30;99.90;;;;;;5076704;28;20230;-76
2021/09/04 08:39:22;;;;;;;8.77;7.20;;;17.50;99.90;;;;;;5076951;28;20211;-76
2021/09/04 08:41:49;;;;;;;9.77;7.82;;;17.60;99.90;;;;;;5076469;28;20650;-76
2021/09/04 08:44:16;;;;;;;9.27;7.43;;;17.60;99.90;;;;;;5076545;28;20710;-76
2021/09/04 08:46:43;;;;;;;9.20;6.88;;;17.70;99.90;;;;;;5076439;28;20301;-76
2021/09/04 08:49:10;;;;;;;9.73;7.95;;;17.80;99.90;;;;;;5076940;28;20206;-76
2021/09/04 08:51:37;;;;;;;9.57;7.82;;;18.00;99.90;;;;;;5076393;28;20230;-76
2021/09/04 08:54:05;;;;;;;7.72;6.90;;;18.10;99.90;;;;;;5076906;28;20570;-76
2021/09/04 08:56:33;;;;;;;8.85;7.45;;;18.20;99.90;;;;;;5076233;28;20202;-75
2021/09/04 08:58:59;;;;;;;10.13;7.35;;;18.30;99.90;;;;;;5076056;28;20595;-76
2021/09/04 09:01:28;;;;;;;9.13;7.80;;;18.30;99.90;;;;;;5076654;28;20621;-76
2021/09/04 09:03:57;;;;;;;8.23;6.88;;;18.40;99.90;;;;;;5076106;28;20776;-76
2021/09/04 09:06:28;;;;;;;8.98;7.20;;;18.60;99.90;;;;;;5084914;28;20206;-75
2021/09/04 09:08:55;;;;;;;10.20;6.78;;;18.70;99.90;;;;;;5080537;28;20210;-78
2021/09/04 09:11:24;;;;;;;7.85;6.82;;;18.80;99.90;;;;;;5080549;28;20207;-77
2021/09/04 09:13:53;;;;;;;7.37;6.57;;;18.90;99.90;;;;;;5080446;28;20226;-78
2021/09/04 09:16:22;;;;;;;7.50;6.60;;;19.00;99.90;;;;;;5080073;28;20528;-77
2021/09/04 09:19:00;;;;;;;8.17;6.70;;;19.00;99.90;;;;;;5081709;28;20299;-78
2021/09/04 09:21:31;;;;;;;6.60;5.80;;;19.00;99.90;;;;;;5082058;28;20489;-79
2021/09/04 09:24:09;;;;;;;7.00;6.13;;;19.10;99.90;;;;;;5082448;28;20516;-79
2021/09/04 09:26:47;;;;;;;8.57;6.60;;;19.30;99.90;;;;;;5082826;28;20533;-79
2021/09/04 09:29:22;;;;;;;6.73;6.03;;;19.30;99.90;;;;;;5082439;28;20453;-79
2021/09/04 09:31:50;;;;;;;6.80;5.70;;;19.50;99.90;;;;;;5082927;28;20485;-78
2021/09/04 09:34:17;;;;;;;8.53;6.60;;;19.60;99.90;;;;;;5082715;28;20493;-79
2021/09/04 09:36:48;;;;;;;7.60;5.83;;;19.80;99.90;;;;;;5080807;28;20530;-79
2021/09/04 09:39:15;;;;;;;6.13;5.30;;;19.90;99.90;;;;;;5076773;28;20455;-75
2021/09/04 09:41:48;;;;;;;6.03;5.13;;;20.00;99.90;;;;;;5074880;28;20883;-78
2021/09/04 09:44:20;;;;;;;6.10;5.50;;;20.20;99.90;;;;;;5076050;28;20501;-77
2021/09/04 09:46:51;;;;;;;6.07;5.47;;;20.60;99.90;;;;;;5074489;28;20456;-78
2021/09/04 09:49:19;;;;;;;7.20;5.43;;;21.80;99.90;;;;;;5074368;28;20459;-76
2021/09/04 09:51:46;;;;;;;7.40;5.83;;;23.90;99.90;;;;;;5074127;28;20814;-77
2021/09/04 09:54:14;;;;;;;5.37;4.87;;;25.80;99.60;;;;;;5075643;28;21037;-77
2021/09/04 09:56:41;;;;;;;6.07;5.50;;;27.20;96.60;;;;;;5074045;28;20444;-76
2021/09/04 09:59:13;;;;;;;5.67;5.07;;;28.70;90.60;;;;;;5074355;28;20498;-78
2021/09/04 10:01:42;;;;;;;5.00;4.40;;;29.70;79.70;;;;;;5077389;28;20807;-77
2021/09/04 10:04:11;;;;;;;5.53;4.97;;;29.70;77.60;;;;;;5079154;28;20481;-77
2021/09/04 10:06:39;;;;;;;6.43;5.13;;;30.20;74.10;;;;;;5073715;28;20457;-76
2021/09/04 10:09:07;;;;;;;5.47;4.77;;;30.40;70.10;;;;;;5073395;28;20539;-75
2021/09/04 10:11:37;;;;;;;4.90;4.47;;;30.60;66.20;;;;;;5073442;28;20444;-76
2021/09/04 10:14:04;;;;;;;4.70;4.30;;;30.80;64.30;;;;;;5073376;28;20479;-75
2021/09/04 10:16:33;;;;;;;5.03;4.63;;;31.00;60.70;;;;;;5073752;28;20454;-76
2021/09/04 10:19:01;;;;;;;4.27;3.87;;;31.50;61.60;;;;;;5073215;28;20459;-76
2021/09/04 10:21:37;;;;;;;4.07;3.77;;;32.40;56.10;;;;;;5073319;28;20535;-76
2021/09/04 10:24:04;;;;;;;4.40;4.10;;;33.10;55.80;;;;;;5073284;28;20538;-76
2021/09/04 10:26:32;;;;;;;4.03;3.73;;;33.30;54.00;;;;;;5073218;28;20451;-76
2021/09/04 10:29:08;;;;;;;4.97;4.57;;;34.30;50.70;;;;;;5072994;28;20449;-75
2021/09/04 10:31:56;;;;;;;4.17;3.87;;;35.00;48.60;;;;;;5073170;28;20449;-76
2021/09/04 10:34:33;;;;;;;3.90;3.60;;;34.30;50.70;;;;;;5075220;28;20552;-77
2021/09/04 10:37:07;;;;;;;4.80;3.93;;;34.30;49.60;;;;;;5078542;28;20455;-78
2021/09/04 10:39:57;;;;;;;4.87;4.37;;;34.10;48.70;;;;;;5080539;28;20512;-78
2021/09/04 10:42:28;;;;;;;4.23;3.93;;;33.60;49.70;;;;;;5070576;28;20457;-76
2021/09/04 10:44:59;;;;;;;5.93;5.43;;;34.00;49.70;;;;;;5073084;28;20484;-76
2021/09/04 10:47:28;;;;;;;5.33;4.90;;;34.00;51.60;;;;;;5075178;28;20453;-78
2021/09/04 10:50:11;;;;;;;6.43;5.83;;;33.60;52.40;;;;;;5073199;28;20535;-77
2021/09/04 10:52:56;;;;;;;5.90;5.30;;;32.70;52.40;;;;;;5074142;28;20542;-76
2021/09/04 10:55:25;;;;;;;5.10;4.60;;;31.10;56.10;;;;;;5076053;28;20465;-80
2021/09/04 10:57:54;;;;;;;5.70;5.20;;;30.30;59.00;;;;;;5077844;28;20955;-79
2021/09/04 11:00:25;;;;;;;6.07;5.57;;;29.90;61.20;;;;;;5078258;28;20445;-79
2021/09/04 11:03:03;;;;;;;5.87;5.37;;;29.50;60.40;;;;;;5078701;28;20477;-78
2021/09/04 11:05:51;;;;;;;6.30;5.70;;;29.50;60.20;;;;;;5077228;28;20582;-77
2021/09/04 11:08:38;;;;;;;6.47;5.40;;;28.90;61.00;;;;;;5077710;28;20535;-80
2021/09/04 11:11:15;;;;;;;5.87;5.27;;;29.50;62.20;;;;;;5076939;28;20506;-78
2021/09/04 11:13:42;;;;;;;5.53;5.03;;;29.80;62.20;;;;;;5078030;28;20528;-78
2021/09/04 11:16:47;;;;;;;6.17;5.43;;;30.00;61.40;;;;;;5077794;28;20529;-78
2021/09/04 11:19:21;;;;;;;5.70;5.10;;;30.30;58.80;;;;;;5077444;28;20868;-80
2021/09/04 11:22:00;;;;;;;5.80;5.20;;;31.10;57.90;;;;;;5078435;28;20998;-78
2021/09/04 11:24:29;;;;;;;6.87;4.90;;;31.00;57.50;;;;;;5076463;28;20480;-78
2021/09/04 11:27:01;;;;;;;5.33;4.80;;;30.30;58.80;;;;;;5076286;28;20528;-78
2021/09/04 11:29:28;;;;;;;4.83;4.43;;;30.80;56.80;;;;;;5077404;28;20508;-79
2021/09/04 11:31:58;;;;;;;5.00;4.60;;;31.30;56.40;;;;;;5078210;28;20463;-78
2021/09/04 11:34:45;;;;;;;5.30;4.90;;;31.70;55.20;;;;;;5076042;28;20461;-79
2021/09/04 11:37:20;;;;;;;6.07;5.47;;;31.80;56.30;;;;;;5077199;28;20811;-79
2021/09/04 11:39:47;;;;;;;5.57;5.07;;;32.10;54.90;;;;;;5077881;28;20536;-78
2021/09/04 11:42:15;;;;;;;5.83;5.33;;;31.40;56.40;;;;;;5078847;28;20453;-79
2021/09/04 11:44:53;;;;;;;5.30;4.90;;;31.10;57.10;;;;;;5079382;28;20573;-78
2021/09/04 11:47:21;;;;;;;4.83;4.43;;;30.50;59.00;;;;;;5079829;28;20441;-78
2021/09/04 11:49:51;;;;;;;5.10;4.60;;;29.70;61.40;;;;;;5076817;28;20476;-76
2021/09/04 11:52:24;;;;;;;4.63;4.23;;;29.20;63.20;;;;;;5075845;28;20444;-77
2021/09/04 11:55:02;;;;;;;4.83;4.43;;;28.50;62.00;;;;;;5076184;28;20963;-78
2021/09/04 11:57:30;;;;;;;5.43;4.57;;;27.80;64.60;;;;;;5078718;28;20479;-79
2021/09/04 11:59:59;;;;;;;4.87;4.47;;;27.50;66.70;;;;;;5077738;28;20441;-75
2021/09/04 12:02:26;;;;;;;4.43;4.03;;;27.40;66.10;;;;;;5071927;28;20811;-76
2021/09/04 12:04:55;;;;;;;4.50;4.10;;;27.10;65.50;;;;;;5071941;28;20489;-74
2021/09/04 12:07:26;;;;;;;4.23;3.93;;;26.80;67.80;;;;;;5071930;28;20955;-74
2021/09/04 12:09:54;;;;;;;3.70;3.40;;;26.60;68.30;;;;;;5073090;28;20459;-75
2021/09/04 12:12:25;;;;;;;4.03;3.63;;;26.60;62.20;;;;;;5075831;28;20527;-75
2021/09/04 12:14:52;;;;;;;4.33;3.93;;;26.50;62.30;;;;;;5075761;28;20464;-75
2021/09/04 12:17:19;;;;;;;3.67;3.37;;;26.50;60.20;;;;;;5076207;28;20477;-75
2021/09/04 12:19:46;;;;;;;4.07;3.50;;;26.40;63.20;;;;;;5076168;28;20535;-76
2021/09/04 12:22:14;;;;;;;3.57;3.30;;;26.20;61.10;;;;;;5076983;28;20551;-76
2021/09/04 12:24:41;;;;;;;4.23;3.90;;;26.10;65.00;;;;;;5076694;28;20572;-77
2021/09/04 12:27:08;;;;;;;4.67;4.27;;;26.00;65.70;;;;;;5076167;28;20451;-76
2021/09/04 12:29:34;;;;;;;6.60;3.80;;;25.90;67.40;;;;;;5077465;28;20537;-77
2021/09/04 12:32:10;;;;;;;6.10;4.90;;;26.00;67.40;;;;;;5076408;28;20479;-78
2021/09/04 12:34:38;;;;;;;4.40;4.00;;;26.10;62.50;;;;;;5076349;28;20547;-77
2021/09/04 12:37:25;;;;;;;3.73;3.43;;;26.10;64.00;;;;;;5075212;28;20886;-77
2021/09/04 12:39:52;;;;;;;3.63;3.27;;;26.10;62.00;;;;;;5075809;28;20429;-76
2021/09/04 12:42:20;;;;;;;3.83;3.50;;;26.20;65.10;;;;;;5075385;28;20559;-77
2021/09/04 12:44:48;;;;;;;4.07;3.67;;;26.30;66.90;;;;;;5075388;28;20487;-76
2021/09/04 12:47:16;;;;;;;4.20;3.90;;;26.30;62.80;;;;;;5075225;28;20939;-77
2021/09/04 12:49:52;;;;;;;3.87;3.27;;;26.30;64.50;;;;;;5075478;28;20524;-77
2021/09/04 12:52:27;;;;;;;4.20;3.80;;;26.30;64.70;;;;;;5075121;28;20452;-77